Time;durP1;ratioP1;P1;durP2;ratioP2;P2;SDS_P1;SDS_P2;PMS_P1;PMS_P2;Temp;Humidity;BMP_temperature;BMP_pressure;BME280_temperature;BME280_humidity;BME280_pressure;Samples;Min_cycle;Max_cycle;Signal;HPM_P1;HPM_P2
2024/02/23 00:01:03;;;;;;;1.40;0.93;;;7.20;1.00;;;;;;5076374;28;20043;-69
2024/02/23 00:03:29;;;;;;;3.47;0.98;;;7.10;1.00;;;;;;5076381;28;20036;-69
2024/02/23 00:05:54;;;;;;;1.73;0.90;;;7.10;1.00;;;;;;5076540;28;20033;-69
2024/02/23 00:08:20;;;;;;;2.05;0.90;;;7.10;1.00;;;;;;5076228;28;20020;-68
2024/02/23 00:10:46;;;;;;;1.88;0.88;;;7.10;1.00;;;;;;5076233;28;20024;-69
2024/02/23 00:13:12;;;;;;;4.10;1.10;;;7.00;1.00;;;;;;5076087;28;20021;-69
2024/02/23 00:15:37;;;;;;;2.15;1.50;;;6.90;28.60;;;;;;5076331;28;20031;-69
2024/02/23 00:18:03;;;;;;;1.88;1.50;;;6.80;48.00;;;;;;5076259;28;20539;-69
2024/02/23 00:20:29;;;;;;;1.90;1.80;;;6.60;42.70;;;;;;5076008;28;20471;-69
2024/02/23 00:22:55;;;;;;;1.95;1.23;;;6.50;60.40;;;;;;5075952;28;20059;-69
2024/02/23 00:25:23;;;;;;;1.63;1.52;;;6.40;69.10;;;;;;5075979;28;20098;-68
2024/02/23 00:27:48;;;;;;;2.25;1.30;;;6.40;90.70;;;;;;5075906;28;20051;-69
2024/02/23 00:30:14;;;;;;;1.70;1.52;;;6.30;91.30;;;;;;5074686;28;20033;-68
2024/02/23 00:32:40;;;;;;;2.35;1.98;;;6.20;97.00;;;;;;5076022;28;20076;-68
2024/02/23 00:35:06;;;;;;;3.72;2.25;;;6.20;99.80;;;;;;5075763;28;20497;-68
2024/02/23 00:37:35;;;;;;;2.42;1.67;;;6.10;99.90;;;;;;5075686;28;20025;-68
2024/02/23 00:40:04;;;;;;;1.60;1.23;;;6.10;97.00;;;;;;5075818;28;20106;-68
2024/02/23 00:42:30;;;;;;;1.35;1.25;;;6.00;92.60;;;;;;5075616;28;20028;-68
2024/02/23 00:44:55;;;;;;;1.90;1.60;;;6.00;92.50;;;;;;5075410;28;20025;-68
2024/02/23 00:47:21;;;;;;;2.13;1.67;;;6.00;86.90;;;;;;5075742;28;20036;-69
2024/02/23 00:49:47;;;;;;;2.00;1.88;;;6.00;81.50;;;;;;5075651;28;20029;-69
2024/02/23 00:52:12;;;;;;;2.33;1.38;;;6.00;85.20;;;;;;5075501;28;20102;-69
2024/02/23 00:54:38;;;;;;;1.10;1.10;;;5.90;63.70;;;;;;5075372;28;20035;-69
2024/02/23 00:57:03;;;;;;;1.27;1.17;;;5.90;44.60;;;;;;5075642;28;20391;-69
2024/02/23 00:59:29;;;;;;;3.17;1.20;;;5.90;58.00;;;;;;5075211;28;20104;-69
2024/02/23 01:01:55;;;;;;;1.85;1.00;;;5.80;66.60;;;;;;5075246;28;20453;-68
2024/02/23 01:04:21;;;;;;;1.52;1.20;;;5.80;58.80;;;;;;5074905;28;20024;-68
2024/02/23 01:06:47;;;;;;;0.85;0.82;;;5.80;53.40;;;;;;5075103;28;20036;-69
2024/02/23 01:09:13;;;;;;;1.00;0.90;;;5.70;55.50;;;;;;5075089;28;20031;-69
2024/02/23 01:11:38;;;;;;;1.23;1.00;;;5.70;58.50;;;;;;5075290;28;20024;-68
2024/02/23 01:14:06;;;;;;;2.60;1.20;;;5.70;55.80;;;;;;5074923;28;20028;-68
2024/02/23 01:16:32;;;;;;;3.42;1.80;;;5.70;56.10;;;;;;5074994;28;20028;-68
2024/02/23 01:18:58;;;;;;;2.72;1.95;;;5.70;52.60;;;;;;5074892;28;20017;-68
2024/02/23 01:21:23;;;;;;;4.40;2.55;;;5.60;52.70;;;;;;5074572;28;20027;-68
2024/02/23 01:23:49;;;;;;;5.38;3.42;;;5.70;59.30;;;;;;5074916;28;20036;-68
2024/02/23 01:26:15;;;;;;;3.03;2.70;;;5.70;67.00;;;;;;5075015;28;20032;-70
2024/02/23 01:28:40;;;;;;;5.13;2.90;;;5.70;64.30;;;;;;5074927;28;20036;-68
2024/02/23 01:31:10;;;;;;;3.10;1.95;;;5.70;71.00;;;;;;5074925;28;20036;-69
2024/02/23 01:33:37;;;;;;;3.42;1.90;;;5.70;59.00;;;;;;5074796;28;20497;-69
2024/02/23 01:36:05;;;;;;;1.63;1.50;;;5.70;47.70;;;;;;5074598;28;20466;-69
2024/02/23 01:38:32;;;;;;;1.52;1.42;;;5.70;37.90;;;;;;5074619;28;20020;-69
2024/02/23 01:40:58;;;;;;;2.67;1.50;;;5.70;37.90;;;;;;5074223;28;20024;-69
2024/02/23 01:43:24;;;;;;;2.90;1.40;;;5.70;33.90;;;;;;5074424;28;20029;-69
2024/02/23 01:45:50;;;;;;;3.92;1.40;;;5.60;26.50;;;;;;5074590;28;20043;-69
2024/02/23 01:48:16;;;;;;;1.67;1.20;;;5.60;16.60;;;;;;5074293;28;20112;-69
2024/02/23 01:50:43;;;;;;;5.50;1.67;;;5.70;1.00;;;;;;5074354;28;20083;-69
2024/02/23 01:53:12;;;;;;;3.72;1.70;;;5.70;1.00;;;;;;5072845;28;20406;-69
2024/02/23 01:55:40;;;;;;;3.90;1.50;;;5.80;1.00;;;;;;5074241;28;20482;-69
2024/02/23 01:58:06;;;;;;;4.50;1.70;;;5.80;1.00;;;;;;5074265;28;20470;-69
2024/02/23 02:00:32;;;;;;;3.55;1.55;;;5.80;1.00;;;;;;5074115;28;20035;-69
2024/02/23 02:02:58;;;;;;;2.60;1.83;;;5.80;1.00;;;;;;5074088;28;20027;-69
2024/02/23 02:05:24;;;;;;;5.05;1.80;;;5.90;1.00;;;;;;5074010;28;20554;-69
2024/02/23 02:07:53;;;;;;;4.00;1.85;;;5.90;1.00;;;;;;5073808;28;20032;-69
2024/02/23 02:10:20;;;;;;;2.28;1.65;;;5.90;1.00;;;;;;5073944;28;20402;-69
2024/02/23 02:12:46;;;;;;;4.97;1.90;;;5.90;1.00;;;;;;5074057;28;20040;-69
2024/02/23 02:15:12;;;;;;;3.28;1.85;;;5.90;1.00;;;;;;5073101;28;20041;-69
2024/02/23 02:17:37;;;;;;;3.40;1.75;;;5.90;1.00;;;;;;5073918;28;20028;-69
2024/02/23 02:20:04;;;;;;;5.63;1.80;;;5.90;1.00;;;;;;5073692;28;20017;-69
2024/02/23 02:22:33;;;;;;;4.75;1.67;;;5.90;1.00;;;;;;5073794;28;20482;-69
2024/02/23 02:24:59;;;;;;;2.53;1.40;;;5.90;1.00;;;;;;5073678;28;20032;-69
2024/02/23 02:27:24;;;;;;;4.70;1.50;;;5.80;1.00;;;;;;5073661;28;20093;-69
2024/02/23 02:29:51;;;;;;;5.60;1.67;;;5.70;1.00;;;;;;5073687;28;20482;-69
2024/02/23 02:32:16;;;;;;;2.75;1.40;;;5.80;1.00;;;;;;5073269;28;20036;-68
2024/02/23 02:34:42;;;;;;;1.58;1.33;;;5.80;1.00;;;;;;5072275;28;20474;-69
2024/02/23 02:37:08;;;;;;;1.55;1.33;;;5.80;1.00;;;;;;5073786;28;20039;-69
2024/02/23 02:39:34;;;;;;;3.67;1.60;;;5.90;1.00;;;;;;5073226;28;20089;-69
2024/02/23 02:42:00;;;;;;;1.65;1.15;;;6.00;1.00;;;;;;5073414;28;20056;-69
2024/02/23 02:44:30;;;;;;;5.72;1.55;;;6.00;1.00;;;;;;5073349;28;20056;-69
2024/02/23 02:46:56;;;;;;;2.38;1.30;;;6.00;1.00;;;;;;5073367;28;20028;-69
2024/02/23 02:49:22;;;;;;;2.90;1.40;;;6.10;1.00;;;;;;5073527;28;20055;-69
2024/02/23 02:51:47;;;;;;;2.47;1.30;;;6.10;1.00;;;;;;5073150;28;20060;-69
2024/02/23 02:54:13;;;;;;;1.88;1.30;;;6.10;1.00;;;;;;5073419;28;20036;-69
2024/02/23 02:56:47;;;;;;;3.33;1.48;;;6.10;1.00;;;;;;5073570;28;20103;-69
2024/02/23 02:59:13;;;;;;;3.35;1.33;;;6.20;1.00;;;;;;5072197;28;20539;-69
2024/02/23 03:01:39;;;;;;;4.57;1.30;;;6.20;1.00;;;;;;5073242;28;20028;-69
2024/02/23 03:04:05;;;;;;;9.25;1.98;;;6.20;1.00;;;;;;5073057;28;20033;-69
2024/02/23 03:06:31;;;;;;;7.38;1.42;;;6.20;1.00;;;;;;5073164;28;20036;-69
2024/02/23 03:08:56;;;;;;;4.90;1.30;;;6.20;1.00;;;;;;5073141;28;20032;-69
2024/02/23 03:11:22;;;;;;;8.07;2.00;;;6.20;1.00;;;;;;5073121;28;20067;-69
2024/02/23 03:13:48;;;;;;;8.48;1.55;;;6.20;1.00;;;;;;5072764;28;20025;-69
2024/02/23 03:16:16;;;;;;;4.65;1.30;;;6.20;1.00;;;;;;5073389;28;20086;-68
2024/02/23 03:18:42;;;;;;;5.00;1.58;;;6.10;1.00;;;;;;5073090;28;20028;-69
2024/02/23 03:21:09;;;;;;;3.88;1.40;;;6.10;1.00;;;;;;5073144;28;20025;-69
2024/02/23 03:23:35;;;;;;;3.28;0.98;;;6.10;1.00;;;;;;5073162;28;20032;-69
2024/02/23 03:26:01;;;;;;;2.63;1.20;;;6.00;1.00;;;;;;5074272;28;20029;-69
2024/02/23 03:28:27;;;;;;;3.38;1.42;;;6.10;1.00;;;;;;5076968;28;20039;-69
2024/02/23 03:30:52;;;;;;;4.10;1.35;;;6.10;1.00;;;;;;5077006;28;20028;-68
2024/02/23 03:33:18;;;;;;;5.53;1.45;;;6.20;1.00;;;;;;5076903;28;20032;-68
2024/02/23 03:35:43;;;;;;;5.93;1.80;;;6.20;1.00;;;;;;5076984;28;20020;-68
2024/02/23 03:38:09;;;;;;;3.72;1.35;;;6.20;1.00;;;;;;5077100;28;20382;-69
2024/02/23 03:40:35;;;;;;;7.22;1.70;;;6.20;99.90;;;;;;5076767;28;20027;-68
2024/02/23 03:43:02;;;;;;;5.45;1.52;;;6.20;1.00;;;;;;5075460;28;20471;-69
2024/02/23 03:45:28;;;;;;;5.68;1.58;;;6.20;1.00;;;;;;5076821;28;20127;-69
2024/02/23 03:47:53;;;;;;;6.65;1.50;;;6.20;1.00;;;;;;5076713;28;20490;-68
2024/02/23 03:50:19;;;;;;;7.35;1.35;;;6.20;1.00;;;;;;5076630;28;20028;-68
2024/02/23 03:52:45;;;;;;;10.85;1.40;;;6.10;1.00;;;;;;5076279;28;20045;-69
2024/02/23 03:55:11;;;;;;;4.45;1.45;;;6.10;1.00;;;;;;5076529;28;20075;-68
2024/02/23 03:57:37;;;;;;;2.15;1.10;;;6.10;1.00;;;;;;5076597;28;20024;-69
2024/02/23 04:00:03;;;;;;;5.47;1.50;;;6.00;1.00;;;;;;5076422;28;20028;-68
2024/02/23 04:02:29;;;;;;;10.75;1.70;;;6.00;1.00;;;;;;5076598;28;20024;-68
2024/02/23 04:04:54;;;;;;;9.23;1.48;;;5.90;1.00;;;;;;5076403;28;20111;-69
2024/02/23 04:07:20;;;;;;;4.05;1.38;;;5.80;1.00;;;;;;5076282;28;20072;-69
2024/02/23 04:09:51;;;;;;;7.30;1.80;;;5.80;1.00;;;;;;5076311;28;20052;-69
2024/02/23 04:12:19;;;;;;;6.68;1.63;;;5.80;1.00;;;;;;5076488;28;20042;-69
2024/02/23 04:14:44;;;;;;;4.15;1.40;;;5.90;1.00;;;;;;5076191;28;20024;-69
2024/02/23 04:17:11;;;;;;;4.80;1.40;;;5.80;1.00;;;;;;5076271;28;20036;-68
2024/02/23 04:19:37;;;;;;;4.88;1.10;;;5.80;1.00;;;;;;5076346;28;20028;-69
2024/02/23 04:22:05;;;;;;;8.50;1.48;;;5.70;1.00;;;;;;5075812;28;20028;-69
2024/02/23 04:24:31;;;;;;;3.47;1.48;;;5.70;1.00;;;;;;5075924;28;20478;-69
2024/02/23 04:26:57;;;;;;;4.45;1.40;;;5.80;1.00;;;;;;5075944;28;20039;-70
2024/02/23 04:29:22;;;;;;;4.20;1.60;;;5.80;1.00;;;;;;5075680;28;20033;-69
2024/02/23 04:31:48;;;;;;;5.57;1.45;;;5.80;1.00;;;;;;5076103;28;20100;-69
2024/02/23 04:34:15;;;;;;;5.38;1.73;;;5.80;1.00;;;;;;5075860;28;20020;-69
2024/02/23 04:36:42;;;;;;;5.60;1.80;;;5.80;1.00;;;;;;5075890;28;20029;-69
2024/02/23 04:39:07;;;;;;;9.70;2.00;;;5.80;1.00;;;;;;5074928;28;20027;-70
2024/02/23 04:41:33;;;;;;;5.75;2.13;;;5.80;1.00;;;;;;5075856;28;20028;-69
2024/02/23 04:44:00;;;;;;;6.55;2.13;;;5.80;1.00;;;;;;5075616;28;20025;-69
2024/02/23 04:46:26;;;;;;;5.10;2.22;;;5.90;1.00;;;;;;5075709;28;20029;-70
2024/02/23 04:48:52;;;;;;;5.40;2.47;;;6.00;1.00;;;;;;5075485;28;20047;-69
2024/02/23 04:51:18;;;;;;;5.05;1.80;;;5.90;1.00;;;;;;5075527;28;20478;-69
2024/02/23 04:53:44;;;;;;;4.70;1.90;;;5.90;1.00;;;;;;5075247;28;20072;-69
2024/02/23 04:56:09;;;;;;;3.50;2.05;;;6.00;1.00;;;;;;5075526;28;20048;-69
2024/02/23 04:58:36;;;;;;;3.80;1.70;;;6.00;1.00;;;;;;5075323;28;20398;-69
2024/02/23 05:01:03;;;;;;;6.65;2.08;;;5.90;1.00;;;;;;5075587;28;20036;-69
2024/02/23 05:03:28;;;;;;;4.75;1.77;;;6.00;1.00;;;;;;5075369;28;20032;-69
2024/02/23 05:05:54;;;;;;;4.35;1.90;;;6.00;1.00;;;;;;5075218;28;20035;-70
2024/02/23 05:08:20;;;;;;;5.90;1.80;;;6.00;99.90;;;;;;5075375;28;20036;-69
2024/02/23 05:10:47;;;;;;;7.72;1.80;;;6.00;1.00;;;;;;5075225;28;20028;-69
2024/02/23 05:13:13;;;;;;;7.43;1.70;;;6.00;99.90;;;;;;5075086;28;20031;-69
2024/02/23 05:15:38;;;;;;;7.93;1.73;;;6.00;99.90;;;;;;5074855;28;20457;-69
2024/02/23 05:18:05;;;;;;;8.82;1.98;;;6.00;99.90;;;;;;5073729;28;20027;-69
2024/02/23 05:20:30;;;;;;;6.32;1.50;;;6.00;99.90;;;;;;5074884;28;20445;-69
2024/02/23 05:22:56;;;;;;;9.07;1.90;;;6.00;99.90;;;;;;5074665;28;20021;-69
2024/02/23 05:25:21;;;;;;;2.40;1.38;;;6.00;99.90;;;;;;5074846;28;20397;-69
2024/02/23 05:27:47;;;;;;;3.72;1.38;;;6.00;99.90;;;;;;5074531;28;20115;-70
2024/02/23 05:30:13;;;;;;;6.03;1.88;;;6.00;99.90;;;;;;5074730;28;20029;-70
2024/02/23 05:32:39;;;;;;;4.55;1.20;;;6.00;99.90;;;;;;5074798;28;20516;-70
2024/02/23 05:35:06;;;;;;;2.88;1.13;;;6.00;99.90;;;;;;5074490;28;20497;-70
2024/02/23 05:37:31;;;;;;;9.88;1.60;;;6.00;99.90;;;;;;5074467;28;20115;-70
2024/02/23 05:39:59;;;;;;;4.25;1.38;;;6.00;99.90;;;;;;5074472;28;20522;-70
2024/02/23 05:42:25;;;;;;;6.90;1.42;;;6.10;99.90;;;;;;5074248;28;20040;-70
2024/02/23 05:44:51;;;;;;;6.03;1.50;;;6.10;99.90;;;;;;5074392;28;20096;-70
2024/02/23 05:47:17;;;;;;;3.22;1.80;;;6.10;99.90;;;;;;5074373;28;20111;-70
2024/02/23 05:49:43;;;;;;;4.85;1.27;;;6.10;99.90;;;;;;5074498;28;20036;-69
2024/02/23 05:52:09;;;;;;;7.35;1.40;;;6.10;99.90;;;;;;5074195;28;20094;-69
2024/02/23 05:54:35;;;;;;;9.00;1.55;;;6.00;99.90;;;;;;5074055;28;20478;-69
2024/02/23 05:57:01;;;;;;;6.03;1.52;;;6.00;99.90;;;;;;5073873;28;20470;-70
2024/02/23 05:59:27;;;;;;;3.80;1.20;;;5.90;99.90;;;;;;5073963;28;20089;-70
2024/02/23 06:01:56;;;;;;;5.55;1.40;;;5.80;99.90;;;;;;5074056;28;20053;-70
2024/02/23 06:04:23;;;;;;;5.50;1.73;;;5.80;99.90;;;;;;5074088;28;20032;-70
2024/02/23 06:06:48;;;;;;;5.28;1.60;;;5.70;1.00;;;;;;5072880;28;20455;-70
2024/02/23 06:09:14;;;;;;;8.35;1.50;;;5.70;1.00;;;;;;5074198;28;20066;-70
2024/02/23 06:11:40;;;;;;;4.18;1.27;;;5.80;99.90;;;;;;5073970;28;20505;-70
2024/02/23 06:14:05;;;;;;;5.32;1.38;;;5.80;99.90;;;;;;5073892;28;20025;-69
2024/02/23 06:16:31;;;;;;;5.60;1.50;;;5.90;99.90;;;;;;5073791;28;20028;-70
2024/02/23 06:18:58;;;;;;;6.65;1.85;;;5.90;99.90;;;;;;5073779;28;20043;-69
2024/02/23 06:21:23;;;;;;;7.88;2.20;;;5.90;99.90;;;;;;5073749;28;20158;-69
2024/02/23 06:23:49;;;;;;;5.55;1.73;;;6.00;99.90;;;;;;5073449;28;20078;-70
2024/02/23 06:26:15;;;;;;;5.97;1.55;;;6.00;99.90;;;;;;5073774;28;20016;-69
2024/02/23 06:28:42;;;;;;;4.63;1.45;;;6.00;99.90;;;;;;5073855;28;20429;-70
2024/02/23 06:31:08;;;;;;;3.95;1.30;;;6.00;99.90;;;;;;5073284;28;20055;-70
2024/02/23 06:33:34;;;;;;;5.50;2.15;;;5.90;99.90;;;;;;5073343;28;20471;-70
2024/02/23 06:36:00;;;;;;;4.97;1.30;;;5.90;99.90;;;;;;5072360;28;20086;-70
2024/02/23 06:38:26;;;;;;;6.93;1.45;;;5.90;99.90;;;;;;5073639;28;20021;-70
2024/02/23 06:40:52;;;;;;;3.92;1.30;;;5.90;99.90;;;;;;5073350;28;20075;-70
2024/02/23 06:43:18;;;;;;;3.53;1.60;;;5.90;99.90;;;;;;5073711;28;20025;-70
2024/02/23 06:45:44;;;;;;;7.18;1.30;;;5.90;99.90;;;;;;5073445;28;20446;-70
2024/02/23 06:48:10;;;;;;;10.10;1.55;;;5.80;99.90;;;;;;5073167;28;20040;-70
2024/02/23 06:50:36;;;;;;;10.02;1.75;;;5.80;99.90;;;;;;5073466;28;20360;-73
2024/02/23 06:53:02;;;;;;;15.50;1.40;;;5.80;99.90;;;;;;5073131;28;20067;-73
2024/02/23 06:55:28;;;;;;;2.38;1.13;;;5.90;99.90;;;;;;5073036;28;20036;-73
2024/02/23 06:57:54;;;;;;;6.88;1.65;;;6.00;99.90;;;;;;5073075;28;20020;-73
2024/02/23 07:00:21;;;;;;;8.25;1.42;;;6.20;99.90;;;;;;5072706;28;20458;-73
2024/02/23 07:02:47;;;;;;;4.95;1.40;;;6.30;99.90;;;;;;5072153;28;20043;-73
2024/02/23 07:05:13;;;;;;;4.85;1.30;;;6.30;99.90;;;;;;5072425;28;20107;-73
2024/02/23 07:07:40;;;;;;;4.60;1.15;;;6.40;99.90;;;;;;5082821;28;20050;-72
2024/02/23 07:10:07;;;;;;;8.57;1.38;;;6.50;99.90;;;;;;5072844;28;20406;-73
2024/02/23 07:12:32;;;;;;;8.73;1.80;;;7.00;26.30;;;;;;5069997;28;20047;-72
2024/02/23 07:14:58;;;;;;;4.97;1.30;;;7.60;99.90;;;;;;5061319;28;20486;-73
2024/02/23 07:17:24;;;;;;;2.10;0.85;;;8.20;99.90;;;;;;5057723;28;20424;-74
2024/02/23 07:19:51;;;;;;;5.32;1.30;;;8.60;99.90;;;;;;5064123;28;20032;-74
2024/02/23 07:22:18;;;;;;;8.82;1.40;;;8.40;1.00;;;;;;5071127;28;20029;-74
2024/02/23 07:24:44;;;;;;;4.63;1.63;;;8.80;1.00;;;;;;5072295;28;20047;-75
2024/02/23 07:27:10;;;;;;;8.32;1.58;;;8.80;66.40;;;;;;5072273;28;20024;-75
2024/02/23 07:29:36;;;;;;;2.63;1.02;;;9.00;1.00;;;;;;5071358;28;20398;-74
2024/02/23 07:32:01;;;;;;;7.50;1.33;;;8.90;9.50;;;;;;5070615;28;20025;-74
2024/02/23 07:34:27;;;;;;;6.70;1.73;;;8.70;1.00;;;;;;5071232;28;20130;-74
2024/02/23 07:36:54;;;;;;;6.35;1.52;;;9.00;86.00;;;;;;5070603;28;20444;-75
2024/02/23 07:39:20;;;;;;;6.43;1.70;;;9.30;99.90;;;;;;5071850;28;20039;-75
2024/02/23 07:41:46;;;;;;;6.55;1.67;;;9.20;99.90;;;;;;5072189;28;20028;-74
2024/02/23 07:44:12;;;;;;;8.93;1.73;;;8.60;88.20;;;;;;5072321;28;20033;-75
2024/02/23 07:46:37;;;;;;;7.47;1.80;;;8.40;98.80;;;;;;5072820;28;20064;-75
2024/02/23 07:49:05;;;;;;;3.72;1.70;;;8.50;99.90;;;;;;5072561;28;20077;-75
2024/02/23 07:51:32;;;;;;;5.30;1.75;;;8.30;99.90;;;;;;5071542;28;20028;-74
2024/02/23 07:53:57;;;;;;;6.28;1.35;;;8.50;1.00;;;;;;5070023;28;20411;-75
2024/02/23 07:56:23;;;;;;;6.60;1.20;;;9.00;99.90;;;;;;5071993;28;20021;-75
2024/02/23 07:58:48;;;;;;;4.45;1.15;;;9.30;99.90;;;;;;5072180;28;20170;-75
2024/02/23 08:01:14;;;;;;;4.07;1.48;;;9.70;99.90;;;;;;5071728;28;20021;-75
2024/02/23 08:03:40;;;;;;;5.13;1.27;;;10.00;1.00;;;;;;5070355;28;20032;-75
2024/02/23 08:06:06;;;;;;;3.95;0.95;;;9.80;71.60;;;;;;5072780;28;20056;-75
2024/02/23 08:08:34;;;;;;;4.95;1.30;;;10.40;99.90;;;;;;5072137;28;20079;-75
2024/02/23 08:11:02;;;;;;;4.63;0.90;;;10.20;1.00;;;;;;5072459;28;20111;-75
2024/02/23 08:13:28;;;;;;;3.55;1.33;;;10.20;99.90;;;;;;5073852;28;20056;-75
2024/02/23 08:15:53;;;;;;;7.40;1.40;;;10.40;99.90;;;;;;5074366;28;20071;-73
2024/02/23 08:18:19;;;;;;;5.13;1.25;;;10.30;99.90;;;;;;5075449;28;20071;-72
2024/02/23 08:20:44;;;;;;;5.43;1.52;;;10.20;1.00;;;;;;5076010;28;20093;-74
2024/02/23 08:23:10;;;;;;;5.05;1.48;;;9.60;99.90;;;;;;5076570;28;20037;-75
2024/02/23 08:25:36;;;;;;;8.07;1.50;;;10.10;1.00;;;;;;5075548;28;20116;-74
2024/02/23 08:28:02;;;;;;;3.30;1.23;;;9.80;1.00;;;;;;5074298;28;20453;-74
2024/02/23 08:30:28;;;;;;;5.55;1.30;;;8.90;99.90;;;;;;5074626;28;20085;-73
2024/02/23 08:32:54;;;;;;;6.28;1.20;;;9.00;99.90;;;;;;5074970;28;20032;-74
2024/02/23 08:35:20;;;;;;;5.60;1.13;;;8.80;99.90;;;;;;5075449;28;20021;-75
2024/02/23 08:37:45;;;;;;;4.65;1.42;;;8.30;1.00;;;;;;5074424;28;20056;-75
2024/02/23 08:40:11;;;;;;;7.97;1.40;;;7.80;99.90;;;;;;5079673;28;20492;-74
2024/02/23 08:42:37;;;;;;;5.10;1.08;;;7.60;99.90;;;;;;5074441;28;20517;-75
2024/02/23 08:45:04;;;;;;;6.97;1.25;;;7.50;99.90;;;;;;5077655;28;20028;-75
2024/02/23 08:47:33;;;;;;;6.57;1.40;;;7.50;26.80;;;;;;5073101;28;20111;-74
2024/02/23 08:49:59;;;;;;;4.03;1.23;;;7.40;99.90;;;;;;5068202;28;20037;-74
2024/02/23 08:52:25;;;;;;;4.32;1.70;;;7.30;99.90;;;;;;5072592;28;20040;-75
2024/02/23 08:54:51;;;;;;;6.00;1.60;;;7.20;99.90;;;;;;5072041;28;20478;-74
2024/02/23 08:57:19;;;;;;;4.60;1.35;;;7.30;96.40;;;;;;5073118;28;20501;-72
2024/02/23 08:59:46;;;;;;;7.93;1.45;;;7.30;99.90;;;;;;5071611;28;20486;-74
2024/02/23 09:02:11;;;;;;;4.70;1.20;;;7.30;1.00;;;;;;5067271;28;20505;-75
2024/02/23 09:04:37;;;;;;;4.25;1.40;;;7.30;99.90;;;;;;5071446;28;20041;-74
2024/02/23 09:07:03;;;;;;;3.70;1.27;;;7.30;1.00;;;;;;5071930;28;20060;-75
2024/02/23 09:09:28;;;;;;;8.10;1.35;;;7.40;99.90;;;;;;5071064;28;20029;-75
2024/02/23 09:11:54;;;;;;;3.05;1.10;;;7.40;99.90;;;;;;5069925;28;20535;-74
2024/02/23 09:14:19;;;;;;;4.38;1.25;;;7.30;99.90;;;;;;5071694;28;20028;-74
2024/02/23 09:16:47;;;;;;;8.82;1.52;;;7.20;99.90;;;;;;5071697;28;20024;-74
2024/02/23 09:19:12;;;;;;;6.45;1.30;;;7.20;99.90;;;;;;5072956;28;20020;-74
2024/02/23 09:21:38;;;;;;;4.50;1.10;;;7.20;99.90;;;;;;5073768;28;20032;-75
2024/02/23 09:24:04;;;;;;;5.10;1.08;;;7.30;99.90;;;;;;5073515;28;20035;-68
2024/02/23 09:26:31;;;;;;;3.88;1.05;;;7.40;99.90;;;;;;5074228;28;20028;-68
2024/02/23 09:28:56;;;;;;;5.25;1.15;;;7.50;94.70;;;;;;5073674;28;20090;-69
2024/02/23 09:31:22;;;;;;;5.85;1.65;;;7.70;99.90;;;;;;5074307;28;20036;-68
2024/02/23 09:33:51;;;;;;;6.18;1.08;;;7.70;99.90;;;;;;5073790;28;20074;-68
2024/02/23 09:36:17;;;;;;;6.97;1.33;;;7.70;1.00;;;;;;5074831;28;20157;-68
2024/02/23 09:38:44;;;;;;;4.90;1.90;;;7.70;1.00;;;;;;5074184;28;20027;-68
2024/02/23 09:41:19;;;;;;;5.38;1.40;;;7.60;99.90;;;;;;5087660;28;20024;-67
2024/02/23 09:43:46;;;;;;;6.28;1.58;;;7.60;99.90;;;;;;5075333;28;20078;-68
2024/02/23 09:46:14;;;;;;;5.55;1.38;;;7.60;99.90;;;;;;5074166;28;20387;-67
2024/02/23 09:48:42;;;;;;;8.65;1.75;;;7.60;99.90;;;;;;5073863;28;20028;-69
2024/02/23 09:51:09;;;;;;;2.95;1.00;;;7.60;99.90;;;;;;5072841;28;20082;-68
2024/02/23 09:53:37;;;;;;;8.32;1.27;;;7.60;99.90;;;;;;5071381;28;20063;-68
2024/02/23 09:56:04;;;;;;;4.22;1.42;;;7.60;99.90;;;;;;5072039;28;20559;-68
2024/02/23 09:58:32;;;;;;;6.43;1.80;;;7.70;99.90;;;;;;5065323;28;20021;-69
2024/02/23 10:00:59;;;;;;;10.52;1.52;;;7.70;25.10;;;;;;5070334;28;20115;-70
2024/02/23 10:03:28;;;;;;;8.60;1.83;;;7.70;99.90;;;;;;5072989;28;20055;-69
2024/02/23 10:05:54;;;;;;;4.45;1.20;;;7.80;26.70;;;;;;5073199;28;20031;-69
2024/02/23 10:08:20;;;;;;;4.20;1.08;;;7.80;65.00;;;;;;5086131;28;20024;-68
2024/02/23 10:10:47;;;;;;;6.25;1.40;;;8.00;23.60;;;;;;5076920;28;20040;-70
2024/02/23 10:13:12;;;;;;;6.95;1.30;;;7.90;1.00;;;;;;5073679;28;20418;-69
2024/02/23 10:15:38;;;;;;;6.50;1.42;;;8.10;1.00;;;;;;5073315;28;20063;-69
2024/02/23 10:18:05;;;;;;;3.78;1.20;;;8.30;1.00;;;;;;5072924;28;20036;-70
2024/02/23 10:20:31;;;;;;;2.58;0.95;;;8.40;1.00;;;;;;5073389;28;20048;-69
2024/02/23 10:22:57;;;;;;;5.30;1.55;;;8.80;99.90;;;;;;5073470;28;20474;-68
2024/02/23 10:25:22;;;;;;;7.80;1.20;;;9.20;99.90;;;;;;5073300;28;20032;-69
2024/02/23 10:27:48;;;;;;;4.43;1.48;;;9.10;99.90;;;;;;5072706;28;20043;-69
2024/02/23 10:30:15;;;;;;;4.22;1.00;;;9.00;99.90;;;;;;5073605;28;20029;-69
2024/02/23 10:32:42;;;;;;;4.05;0.90;;;9.00;99.90;;;;;;5072269;28;20094;-69
2024/02/23 10:35:13;;;;;;;4.43;1.27;;;8.80;99.90;;;;;;5070214;28;20028;-68
2024/02/23 10:37:39;;;;;;;8.10;1.27;;;8.70;99.90;;;;;;5071737;28;20028;-69
2024/02/23 10:40:09;;;;;;;3.65;1.00;;;8.80;99.90;;;;;;5064502;28;20052;-74
2024/02/23 10:42:37;;;;;;;9.38;1.17;;;9.20;99.90;;;;;;5072735;28;20034;-75
2024/02/23 10:45:05;;;;;;;5.45;1.17;;;9.50;99.90;;;;;;5072657;28;20040;-75
2024/02/23 10:47:32;;;;;;;6.88;0.93;;;9.60;99.90;;;;;;5072797;28;20035;-65
2024/02/23 10:50:01;;;;;;;7.75;1.25;;;9.20;99.90;;;;;;5073092;28;20044;-67
2024/02/23 10:52:26;;;;;;;3.75;1.02;;;9.40;99.90;;;;;;5071766;28;20495;-68
2024/02/23 10:54:55;;;;;;;6.40;1.35;;;9.60;99.90;;;;;;5067032;28;20415;-69
2024/02/23 10:57:21;;;;;;;5.57;1.20;;;10.10;99.90;;;;;;5063050;28;20053;-69
2024/02/23 10:59:47;;;;;;;2.33;0.95;;;10.10;99.90;;;;;;5071919;28;20060;-69
2024/02/23 11:02:20;;;;;;;3.63;0.98;;;10.50;99.90;;;;;;5072422;28;20074;-69
2024/02/23 11:04:51;;;;;;;4.00;0.93;;;10.90;99.90;;;;;;5071286;28;20409;-69
2024/02/23 11:07:19;;;;;;;5.50;1.45;;;11.00;99.90;;;;;;5073177;28;20497;-71
2024/02/23 11:09:53;;;;;;;7.70;1.08;;;11.10;99.90;;;;;;5071184;28;20047;-70
2024/02/23 11:12:24;;;;;;;5.72;1.30;;;10.60;99.90;;;;;;5081158;28;20024;-70
2024/02/23 11:14:50;;;;;;;6.13;1.08;;;10.50;99.90;;;;;;5073501;28;20024;-69
2024/02/23 11:17:20;;;;;;;2.90;0.90;;;10.00;99.90;;;;;;5071897;28;20032;-69
2024/02/23 11:19:49;;;;;;;3.17;1.10;;;10.00;99.90;;;;;;5072094;28;20020;-69
2024/02/23 11:22:15;;;;;;;6.43;1.40;;;10.00;99.90;;;;;;5062012;28;20518;-69
2024/02/23 11:24:45;;;;;;;4.30;1.25;;;9.90;99.90;;;;;;5058957;28;20059;-70
2024/02/23 11:27:17;;;;;;;4.35;1.10;;;9.50;99.90;;;;;;5073367;28;20060;-69
2024/02/23 11:29:45;;;;;;;7.03;1.63;;;9.80;99.90;;;;;;5073291;28;20051;-72
2024/02/23 11:32:17;;;;;;;3.63;1.30;;;10.00;99.90;;;;;;5076293;28;20359;-69
2024/02/23 11:34:58;;;;;;;5.05;1.20;;;9.60;99.90;;;;;;5081826;28;20032;-71
2024/02/23 11:37:23;;;;;;;4.70;1.05;;;9.40;99.90;;;;;;5072809;28;20123;-71
2024/02/23 11:39:50;;;;;;;2.33;1.08;;;9.40;99.90;;;;;;5070091;28;20064;-71
2024/02/23 11:42:16;;;;;;;7.40;1.00;;;9.00;99.90;;;;;;5081674;28;20119;-70
2024/02/23 11:44:41;;;;;;;4.03;1.20;;;9.00;99.90;;;;;;5072312;28;20429;-70
2024/02/23 11:47:07;;;;;;;3.38;1.02;;;9.20;99.90;;;;;;5084360;28;20032;-69
2024/02/23 11:49:33;;;;;;;5.38;1.10;;;9.30;99.90;;;;;;5075414;28;20097;-70
2024/02/23 11:51:59;;;;;;;5.20;1.23;;;9.30;99.90;;;;;;5073809;28;20036;-69
2024/02/23 11:54:25;;;;;;;3.47;0.95;;;9.60;99.90;;;;;;5075638;28;20086;-70
2024/02/23 11:56:52;;;;;;;6.20;0.98;;;9.70;99.90;;;;;;5074476;28;20060;-70
2024/02/23 11:59:19;;;;;;;6.63;1.70;;;9.90;99.90;;;;;;5075721;28;20029;-71
2024/02/23 12:01:47;;;;;;;7.93;1.20;;;10.20;99.90;;;;;;5075752;28;20103;-70
2024/02/23 12:04:14;;;;;;;4.93;0.90;;;10.20;99.90;;;;;;5075726;28;20114;-69
2024/02/23 12:06:41;;;;;;;6.03;1.20;;;9.60;99.90;;;;;;5076214;28;20519;-69
2024/02/23 12:09:08;;;;;;;5.82;1.27;;;9.50;99.90;;;;;;5075965;28;20490;-70
2024/02/23 12:11:34;;;;;;;3.60;1.27;;;9.40;99.90;;;;;;5076027;28;20036;-70
2024/02/23 12:14:02;;;;;;;5.32;1.05;;;9.40;99.90;;;;;;5075739;28;20437;-70
2024/02/23 12:16:28;;;;;;;2.58;0.98;;;9.40;99.90;;;;;;5076012;28;20387;-70
2024/02/23 12:18:55;;;;;;;5.03;1.33;;;9.40;99.90;;;;;;5075623;28;20421;-70
2024/02/23 12:21:22;;;;;;;2.97;0.88;;;9.40;99.90;;;;;;5075807;28;20020;-70
2024/02/23 12:23:50;;;;;;;2.10;0.65;;;9.40;99.90;;;;;;5075723;28;20031;-71
2024/02/23 12:26:18;;;;;;;6.32;1.25;;;9.30;99.90;;;;;;5075662;28;20517;-70
2024/02/23 12:28:45;;;;;;;7.53;1.30;;;9.10;99.90;;;;;;5076072;28;20021;-70
2024/02/23 12:31:11;;;;;;;4.38;1.23;;;9.10;99.90;;;;;;5075698;28;20028;-70
2024/02/23 12:33:39;;;;;;;4.15;0.85;;;9.10;99.90;;;;;;5075524;28;20033;-69
2024/02/23 12:36:06;;;;;;;3.30;0.90;;;9.00;99.90;;;;;;5075452;28;20021;-69
2024/02/23 12:38:32;;;;;;;2.38;0.85;;;9.00;99.90;;;;;;5075695;28;20494;-69
2024/02/23 12:40:59;;;;;;;3.00;1.00;;;9.00;99.90;;;;;;5075809;28;20056;-69
2024/02/23 12:43:25;;;;;;;6.05;0.90;;;9.00;99.90;;;;;;5075926;28;20470;-69
2024/02/23 12:45:52;;;;;;;2.15;0.65;;;9.00;99.90;;;;;;5075466;28;20187;-70
2024/02/23 12:48:18;;;;;;;3.35;1.50;;;9.00;99.90;;;;;;5075352;28;20033;-70
2024/02/23 12:50:45;;;;;;;6.72;0.77;;;9.00;99.90;;;;;;5075361;28;20074;-70
2024/02/23 12:53:32;;;;;;;7.47;1.10;;;8.90;1.00;;;;;;5075104;28;20110;-68
2024/02/23 12:55:58;;;;;;;3.40;1.35;;;8.70;15.30;;;;;;5074740;28;20035;-70